sensor_id;sensor_type;location;lat;lon;timestamp;temperature;humidity
26907;DHT22;14472;56.880;16.658;2023-05-24T00:02:09;14.80;99.90
26907;DHT22;14472;56.880;16.658;2023-05-24T00:04:39;14.70;99.90
26907;DHT22;14472;56.880;16.658;2023-05-24T00:07:04;14.70;99.90
26907;DHT22;14472;56.880;16.658;2023-05-24T00:09:31;14.70;99.90
26907;DHT22;14472;56.880;16.658;2023-05-24T00:11:57;14.70;99.90
26907;DHT22;14472;56.880;16.658;2023-05-24T00:14:23;14.60;99.90
26907;DHT22;14472;56.880;16.658;2023-05-24T00:16:49;14.60;99.90
26907;DHT22;14472;56.880;16.658;2023-05-24T00:19:15;14.60;99.90
26907;DHT22;14472;56.880;16.658;2023-05-24T00:21:46;14.60;99.90
26907;DHT22;14472;56.880;16.658;2023-05-24T00:24:12;14.50;99.90
26907;DHT22;14472;56.880;16.658;2023-05-24T00:26:38;14.50;99.90
26907;DHT22;14472;56.880;16.658;2023-05-24T00:29:04;14.40;99.90
26907;DHT22;14472;56.880;16.658;2023-05-24T00:31:30;14.40;99.90
26907;DHT22;14472;56.880;16.658;2023-05-24T00:33:56;14.40;99.90
26907;DHT22;14472;56.880;16.658;2023-05-24T00:36:22;14.40;99.90
26907;DHT22;14472;56.880;16.658;2023-05-24T00:38:47;14.40;99.90
26907;DHT22;14472;56.880;16.658;2023-05-24T00:41:13;14.30;99.90
26907;DHT22;14472;56.880;16.658;2023-05-24T00:43:39;14.30;99.90
26907;DHT22;14472;56.880;16.658;2023-05-24T00:46:24;14.30;99.90
26907;DHT22;14472;56.880;16.658;2023-05-24T00:48:51;14.40;99.90
26907;DHT22;14472;56.880;16.658;2023-05-24T00:51:17;14.40;99.90
26907;DHT22;14472;56.880;16.658;2023-05-24T00:53:46;14.40;99.90
26907;DHT22;14472;56.880;16.658;2023-05-24T00:56:13;14.40;99.90
26907;DHT22;14472;56.880;16.658;2023-05-24T00:58:39;14.40;99.90
26907;DHT22;14472;56.880;16.658;2023-05-24T01:01:05;14.50;99.90
26907;DHT22;14472;56.880;16.658;2023-05-24T01:03:31;14.50;99.90
26907;DHT22;14472;56.880;16.658;2023-05-24T01:06:00;14.50;99.90
26907;DHT22;14472;56.880;16.658;2023-05-24T01:11:05;14.50;99.90
26907;DHT22;14472;56.880;16.658;2023-05-24T01:13:45;14.50;99.90
26907;DHT22;14472;56.880;16.658;2023-05-24T01:16:23;14.50;99.90
26907;DHT22;14472;56.880;16.658;2023-05-24T01:18:53;14.50;99.90
26907;DHT22;14472;56.880;16.658;2023-05-24T01:27:01;14.50;99.90
26907;DHT22;14472;56.880;16.658;2023-05-24T01:29:29;14.60;99.90
26907;DHT22;14472;56.880;16.658;2023-05-24T01:31:55;14.60;99.90
26907;DHT22;14472;56.880;16.658;2023-05-24T01:34:23;14.60;99.90
26907;DHT22;14472;56.880;16.658;2023-05-24T01:36:49;14.60;99.90
26907;DHT22;14472;56.880;16.658;2023-05-24T01:39:15;14.60;99.90
26907;DHT22;14472;56.880;16.658;2023-05-24T01:44:52;14.60;99.90
26907;DHT22;14472;56.880;16.658;2023-05-24T01:50:21;14.60;99.90
26907;DHT22;14472;56.880;16.658;2023-05-24T01:52:49;14.60;99.90
26907;DHT22;14472;56.880;16.658;2023-05-24T01:55:16;14.50;99.90
26907;DHT22;14472;56.880;16.658;2023-05-24T01:57:43;14.50;99.90
26907;DHT22;14472;56.880;16.658;2023-05-24T02:00:16;14.60;99.90
26907;DHT22;14472;56.880;16.658;2023-05-24T02:02:42;14.60;99.90
26907;DHT22;14472;56.880;16.658;2023-05-24T02:05:09;14.50;99.90
26907;DHT22;14472;56.880;16.658;2023-05-24T02:07:36;14.60;99.90
26907;DHT22;14472;56.880;16.658;2023-05-24T02:10:03;14.60;99.90
26907;DHT22;14472;56.880;16.658;2023-05-24T02:12:29;14.60;99.90
26907;DHT22;14472;56.880;16.658;2023-05-24T02:14:55;14.70;99.90
26907;DHT22;14472;56.880;16.658;2023-05-24T02:17:21;14.70;99.90
26907;DHT22;14472;56.880;16.658;2023-05-24T02:19:50;14.70;99.90
26907;DHT22;14472;56.880;16.658;2023-05-24T02:22:15;14.70;99.90
26907;DHT22;14472;56.880;16.658;2023-05-24T02:24:41;14.80;99.90
26907;DHT22;14472;56.880;16.658;2023-05-24T02:27:07;14.80;99.90
26907;DHT22;14472;56.880;16.658;2023-05-24T02:29:33;14.80;99.90
26907;DHT22;14472;56.880;16.658;2023-05-24T02:31:59;14.80;99.90
26907;DHT22;14472;56.880;16.658;2023-05-24T02:34:25;14.80;99.90
26907;DHT22;14472;56.880;16.658;2023-05-24T02:36:51;14.80;99.90
26907;DHT22;14472;56.880;16.658;2023-05-24T02:39:19;14.80;99.90
26907;DHT22;14472;56.880;16.658;2023-05-24T02:41:44;14.80;99.90
26907;DHT22;14472;56.880;16.658;2023-05-24T02:44:10;14.80;99.90
26907;DHT22;14472;56.880;16.658;2023-05-24T02:46:36;14.80;99.90
26907;DHT22;14472;56.880;16.658;2023-05-24T02:49:02;14.80;99.90
26907;DHT22;14472;56.880;16.658;2023-05-24T02:51:29;14.80;99.90
26907;DHT22;14472;56.880;16.658;2023-05-24T02:53:54;14.80;99.90
26907;DHT22;14472;56.880;16.658;2023-05-24T02:56:20;14.70;99.90
26907;DHT22;14472;56.880;16.658;2023-05-24T02:58:46;14.80;99.90
26907;DHT22;14472;56.880;16.658;2023-05-24T03:01:12;14.80;99.90
26907;DHT22;14472;56.880;16.658;2023-05-24T03:03:38;14.80;99.90
26907;DHT22;14472;56.880;16.658;2023-05-24T03:06:05;14.80;99.90
26907;DHT22;14472;56.880;16.658;2023-05-24T03:08:34;14.80;99.90
26907;DHT22;14472;56.880;16.658;2023-05-24T03:11:02;14.80;99.90
26907;DHT22;14472;56.880;16.658;2023-05-24T03:13:28;14.80;99.90
26907;DHT22;14472;56.880;16.658;2023-05-24T03:15:54;14.80;99.90
26907;DHT22;14472;56.880;16.658;2023-05-24T03:18:19;14.80;99.90
26907;DHT22;14472;56.880;16.658;2023-05-24T03:20:45;14.80;99.90
26907;DHT22;14472;56.880;16.658;2023-05-24T03:23:11;14.80;99.90
26907;DHT22;14472;56.880;16.658;2023-05-24T03:25:37;14.70;99.90
26907;DHT22;14472;56.880;16.658;2023-05-24T03:28:02;14.80;99.90
26907;DHT22;14472;56.880;16.658;2023-05-24T03:30:28;14.80;99.90
26907;DHT22;14472;56.880;16.658;2023-05-24T03:32:54;14.70;99.90
26907;DHT22;14472;56.880;16.658;2023-05-24T03:35:20;14.70;99.90
26907;DHT22;14472;56.880;16.658;2023-05-24T03:37:45;14.70;99.90
26907;DHT22;14472;56.880;16.658;2023-05-24T03:40:11;14.70;99.90
26907;DHT22;14472;56.880;16.658;2023-05-24T03:42:37;14.70;99.90
26907;DHT22;14472;56.880;16.658;2023-05-24T03:45:04;14.70;99.90
26907;DHT22;14472;56.880;16.658;2023-05-24T03:47:30;14.80;99.90
26907;DHT22;14472;56.880;16.658;2023-05-24T03:49:56;14.70;99.90
26907;DHT22;14472;56.880;16.658;2023-05-24T03:52:22;14.70;99.90
26907;DHT22;14472;56.880;16.658;2023-05-24T03:54:48;14.70;99.90
26907;DHT22;14472;56.880;16.658;2023-05-24T03:57:14;14.70;99.90
26907;DHT22;14472;56.880;16.658;2023-05-24T03:59:40;14.70;99.90
26907;DHT22;14472;56.880;16.658;2023-05-24T04:02:06;14.70;99.90
26907;DHT22;14472;56.880;16.658;2023-05-24T04:04:31;14.80;99.90
26907;DHT22;14472;56.880;16.658;2023-05-24T04:06:57;14.80;99.90
26907;DHT22;14472;56.880;16.658;2023-05-24T04:09:23;14.80;99.90
26907;DHT22;14472;56.880;16.658;2023-05-24T04:11:49;14.90;99.90
26907;DHT22;14472;56.880;16.658;2023-05-24T04:14:15;15.00;99.90
26907;DHT22;14472;56.880;16.658;2023-05-24T04:16:40;15.00;99.90
26907;DHT22;14472;56.880;16.658;2023-05-24T04:19:09;15.10;99.90
26907;DHT22;14472;56.880;16.658;2023-05-24T04:21:36;15.20;99.90
26907;DHT22;14472;56.880;16.658;2023-05-24T04:24:03;15.20;99.90
26907;DHT22;14472;56.880;16.658;2023-05-24T04:26:29;15.20;99.90
26907;DHT22;14472;56.880;16.658;2023-05-24T04:28:56;15.30;99.90
26907;DHT22;14472;56.880;16.658;2023-05-24T04:31:22;15.40;99.90
26907;DHT22;14472;56.880;16.658;2023-05-24T04:33:47;15.50;99.90
26907;DHT22;14472;56.880;16.658;2023-05-24T04:36:15;15.50;99.90
26907;DHT22;14472;56.880;16.658;2023-05-24T04:38:42;15.50;99.90
26907;DHT22;14472;56.880;16.658;2023-05-24T04:41:10;15.60;99.90
26907;DHT22;14472;56.880;16.658;2023-05-24T04:43:37;15.60;99.90
26907;DHT22;14472;56.880;16.658;2023-05-24T04:46:03;15.60;99.90
26907;DHT22;14472;56.880;16.658;2023-05-24T04:48:29;15.60;99.90
26907;DHT22;14472;56.880;16.658;2023-05-24T04:50:56;15.70;99.90
26907;DHT22;14472;56.880;16.658;2023-05-24T04:53:25;15.70;99.90
26907;DHT22;14472;56.880;16.658;2023-05-24T04:55:51;15.70;99.90
26907;DHT22;14472;56.880;16.658;2023-05-24T04:58:18;15.70;99.90
26907;DHT22;14472;56.880;16.658;2023-05-24T05:00:44;15.70;99.90
26907;DHT22;14472;56.880;16.658;2023-05-24T05:03:10;15.70;99.90
26907;DHT22;14472;56.880;16.658;2023-05-24T05:05:36;15.70;99.90
26907;DHT22;14472;56.880;16.658;2023-05-24T05:08:02;15.70;99.90
26907;DHT22;14472;56.880;16.658;2023-05-24T05:10:28;15.80;99.90
26907;DHT22;14472;56.880;16.658;2023-05-24T05:12:54;15.80;99.90
26907;DHT22;14472;56.880;16.658;2023-05-24T05:15:21;15.80;99.90
26907;DHT22;14472;56.880;16.658;2023-05-24T05:17:47;15.90;99.90
26907;DHT22;14472;56.880;16.658;2023-05-24T05:20:13;15.90;99.90
26907;DHT22;14472;56.880;16.658;2023-05-24T05:22:44;15.90;99.90
26907;DHT22;14472;56.880;16.658;2023-05-24T05:25:10;15.90;99.90
26907;DHT22;14472;56.880;16.658;2023-05-24T05:27:35;15.90;99.90
26907;DHT22;14472;56.880;16.658;2023-05-24T05:30:01;15.80;99.90
26907;DHT22;14472;56.880;16.658;2023-05-24T05:32:27;15.90;99.90
26907;DHT22;14472;56.880;16.658;2023-05-24T05:34:52;15.80;99.90
26907;DHT22;14472;56.880;16.658;2023-05-24T05:37:18;15.70;99.90
26907;DHT22;14472;56.880;16.658;2023-05-24T05:39:44;15.80;99.90
26907;DHT22;14472;56.880;16.658;2023-05-24T05:42:09;15.70;99.90
26907;DHT22;14472;56.880;16.658;2023-05-24T05:44:35;15.80;99.90
26907;DHT22;14472;56.880;16.658;2023-05-24T05:47:01;15.70;99.90
26907;DHT22;14472;56.880;16.658;2023-05-24T05:49:28;15.80;99.90
26907;DHT22;14472;56.880;16.658;2023-05-24T05:51:54;15.90;99.90
26907;DHT22;14472;56.880;16.658;2023-05-24T05:54:19;15.90;99.90
26907;DHT22;14472;56.880;16.658;2023-05-24T05:56:45;15.90;99.90
26907;DHT22;14472;56.880;16.658;2023-05-24T05:59:15;15.80;99.90
26907;DHT22;14472;56.880;16.658;2023-05-24T06:01:42;15.80;99.90
26907;DHT22;14472;56.880;16.658;2023-05-24T06:04:08;15.80;99.90
26907;DHT22;14472;56.880;16.658;2023-05-24T06:06:35;15.90;99.90
26907;DHT22;14472;56.880;16.658;2023-05-24T06:09:00;15.80;99.90
26907;DHT22;14472;56.880;16.658;2023-05-24T06:11:26;15.90;99.90
26907;DHT22;14472;56.880;16.658;2023-05-24T06:13:52;16.00;99.90
26907;DHT22;14472;56.880;16.658;2023-05-24T06:16:18;16.10;99.90
26907;DHT22;14472;56.880;16.658;2023-05-24T06:18:46;16.10;99.90
26907;DHT22;14472;56.880;16.658;2023-05-24T06:21:13;16.10;99.90
26907;DHT22;14472;56.880;16.658;2023-05-24T06:23:39;16.20;99.90
26907;DHT22;14472;56.880;16.658;2023-05-24T06:26:05;16.20;99.90
26907;DHT22;14472;56.880;16.658;2023-05-24T06:28:34;16.30;99.90
26907;DHT22;14472;56.880;16.658;2023-05-24T06:31:00;16.30;99.90
26907;DHT22;14472;56.880;16.658;2023-05-24T06:33:26;16.30;99.90
26907;DHT22;14472;56.880;16.658;2023-05-24T06:35:52;16.40;99.90
26907;DHT22;14472;56.880;16.658;2023-05-24T06:38:18;16.40;99.90
26907;DHT22;14472;56.880;16.658;2023-05-24T06:40:43;16.30;99.90
26907;DHT22;14472;56.880;16.658;2023-05-24T06:43:09;16.20;99.90
26907;DHT22;14472;56.880;16.658;2023-05-24T06:45:35;16.20;99.90
26907;DHT22;14472;56.880;16.658;2023-05-24T06:48:02;16.20;99.90
26907;DHT22;14472;56.880;16.658;2023-05-24T06:50:27;16.20;99.90
26907;DHT22;14472;56.880;16.658;2023-05-24T06:52:53;16.20;99.90
26907;DHT22;14472;56.880;16.658;2023-05-24T06:55:19;16.30;99.90
26907;DHT22;14472;56.880;16.658;2023-05-24T06:57:45;16.30;99.90
26907;DHT22;14472;56.880;16.658;2023-05-24T07:00:11;16.40;99.90
26907;DHT22;14472;56.880;16.658;2023-05-24T07:02:40;16.40;99.90
26907;DHT22;14472;56.880;16.658;2023-05-24T07:05:07;16.50;99.90
26907;DHT22;14472;56.880;16.658;2023-05-24T07:07:40;16.50;99.90
26907;DHT22;14472;56.880;16.658;2023-05-24T07:10:08;16.40;99.90
26907;DHT22;14472;56.880;16.658;2023-05-24T07:12:35;16.50;99.90
26907;DHT22;14472;56.880;16.658;2023-05-24T07:15:01;16.70;99.90
26907;DHT22;14472;56.880;16.658;2023-05-24T07:17:27;16.80;99.90
26907;DHT22;14472;56.880;16.658;2023-05-24T07:19:53;16.80;99.90
26907;DHT22;14472;56.880;16.658;2023-05-24T07:22:19;16.90;99.90
26907;DHT22;14472;56.880;16.658;2023-05-24T07:24:45;17.00;99.90
26907;DHT22;14472;56.880;16.658;2023-05-24T07:27:10;17.00;99.90
26907;DHT22;14472;56.880;16.658;2023-05-24T07:29:36;17.10;99.90
26907;DHT22;14472;56.880;16.658;2023-05-24T07:32:02;17.10;99.90
26907;DHT22;14472;56.880;16.658;2023-05-24T07:34:28;17.10;99.90
26907;DHT22;14472;56.880;16.658;2023-05-24T07:36:56;17.20;99.90
26907;DHT22;14472;56.880;16.658;2023-05-24T07:39:24;17.20;99.90
26907;DHT22;14472;56.880;16.658;2023-05-24T07:41:50;17.30;99.90
26907;DHT22;14472;56.880;16.658;2023-05-24T07:44:15;17.30;99.90
26907;DHT22;14472;56.880;16.658;2023-05-24T07:46:41;17.40;99.90
26907;DHT22;14472;56.880;16.658;2023-05-24T07:49:07;17.40;99.90
26907;DHT22;14472;56.880;16.658;2023-05-24T07:51:33;17.40;99.90
26907;DHT22;14472;56.880;16.658;2023-05-24T07:53:58;17.50;99.90
26907;DHT22;14472;56.880;16.658;2023-05-24T07:56:24;17.60;99.90
26907;DHT22;14472;56.880;16.658;2023-05-24T07:58:50;17.60;99.90
26907;DHT22;14472;56.880;16.658;2023-05-24T08:01:16;17.70;99.90
26907;DHT22;14472;56.880;16.658;2023-05-24T08:03:44;17.70;99.90
26907;DHT22;14472;56.880;16.658;2023-05-24T08:06:10;17.70;99.90
26907;DHT22;14472;56.880;16.658;2023-05-24T08:08:37;17.70;99.90
26907;DHT22;14472;56.880;16.658;2023-05-24T08:11:04;17.70;99.90
26907;DHT22;14472;56.880;16.658;2023-05-24T08:13:29;17.70;99.90
26907;DHT22;14472;56.880;16.658;2023-05-24T08:15:55;17.80;99.90
26907;DHT22;14472;56.880;16.658;2023-05-24T08:18:22;17.70;97.90
26907;DHT22;14472;56.880;16.658;2023-05-24T08:20:48;17.80;98.30
26907;DHT22;14472;56.880;16.658;2023-05-24T08:23:14;17.80;96.20
26907;DHT22;14472;56.880;16.658;2023-05-24T08:25:40;17.80;97.60
26907;DHT22;14472;56.880;16.658;2023-05-24T08:28:05;17.80;93.20
26907;DHT22;14472;56.880;16.658;2023-05-24T08:30:31;17.90;86.50
26907;DHT22;14472;56.880;16.658;2023-05-24T08:32:57;18.00;92.40
26907;DHT22;14472;56.880;16.658;2023-05-24T08:35:23;18.10;94.00
26907;DHT22;14472;56.880;16.658;2023-05-24T08:37:49;18.30;96.30
26907;DHT22;14472;56.880;16.658;2023-05-24T08:40:15;18.30;83.20
26907;DHT22;14472;56.880;16.658;2023-05-24T08:42:41;18.40;89.30
26907;DHT22;14472;56.880;16.658;2023-05-24T08:45:07;18.50;68.40
26907;DHT22;14472;56.880;16.658;2023-05-24T08:47:35;18.50;59.60
26907;DHT22;14472;56.880;16.658;2023-05-24T08:50:02;18.60;54.50
26907;DHT22;14472;56.880;16.658;2023-05-24T08:52:30;18.40;51.60
26907;DHT22;14472;56.880;16.658;2023-05-24T08:54:58;18.50;47.20
26907;DHT22;14472;56.880;16.658;2023-05-24T08:57:28;18.60;51.20
26907;DHT22;14472;56.880;16.658;2023-05-24T08:59:55;18.60;48.20
26907;DHT22;14472;56.880;16.658;2023-05-24T09:02:22;18.70;54.70
26907;DHT22;14472;56.880;16.658;2023-05-24T09:04:48;18.80;33.10
26907;DHT22;14472;56.880;16.658;2023-05-24T09:07:17;18.80;35.40
26907;DHT22;14472;56.880;16.658;2023-05-24T09:09:47;18.90;31.00
26907;DHT22;14472;56.880;16.658;2023-05-24T09:12:16;18.90;25.80
26907;DHT22;14472;56.880;16.658;2023-05-24T09:14:45;18.80;30.60
26907;DHT22;14472;56.880;16.658;2023-05-24T09:17:12;18.90;31.10
26907;DHT22;14472;56.880;16.658;2023-05-24T09:19:45;18.90;28.30
26907;DHT22;14472;56.880;16.658;2023-05-24T09:22:18;18.80;29.60
26907;DHT22;14472;56.880;16.658;2023-05-24T09:24:50;18.80;25.80
26907;DHT22;14472;56.880;16.658;2023-05-24T09:27:17;18.70;25.10
26907;DHT22;14472;56.880;16.658;2023-05-24T09:29:43;18.70;23.30
26907;DHT22;14472;56.880;16.658;2023-05-24T09:32:14;18.70;26.30
26907;DHT22;14472;56.880;16.658;2023-05-24T09:34:41;18.70;29.00
26907;DHT22;14472;56.880;16.658;2023-05-24T09:37:15;18.60;27.90
26907;DHT22;14472;56.880;16.658;2023-05-24T09:39:43;18.60;22.00
26907;DHT22;14472;56.880;16.658;2023-05-24T09:42:14;18.70;19.40
26907;DHT22;14472;56.880;16.658;2023-05-24T09:44:41;18.70;11.30
26907;DHT22;14472;56.880;16.658;2023-05-24T09:47:07;18.80;8.80
26907;DHT22;14472;56.880;16.658;2023-05-24T09:49:36;18.90;1.00
26907;DHT22;14472;56.880;16.658;2023-05-24T09:52:02;18.90;1.00
26907;DHT22;14472;56.880;16.658;2023-05-24T09:54:27;19.00;1.00
26907;DHT22;14472;56.880;16.658;2023-05-24T09:56:53;19.10;1.00
26907;DHT22;14472;56.880;16.658;2023-05-24T09:59:19;19.30;1.00
26907;DHT22;14472;56.880;16.658;2023-05-24T10:01:45;19.40;1.00
26907;DHT22;14472;56.880;16.658;2023-05-24T10:04:11;19.50;1.00
26907;DHT22;14472;56.880;16.658;2023-05-24T10:06:40;19.60;1.00
26907;DHT22;14472;56.880;16.658;2023-05-24T10:09:07;19.60;1.00
26907;DHT22;14472;56.880;16.658;2023-05-24T10:11:37;19.60;1.00
26907;DHT22;14472;56.880;16.658;2023-05-24T10:14:04;19.60;1.00
26907;DHT22;14472;56.880;16.658;2023-05-24T10:16:32;19.70;1.00
26907;DHT22;14472;56.880;16.658;2023-05-24T10:18:58;19.80;1.00
26907;DHT22;14472;56.880;16.658;2023-05-24T10:21:24;19.90;1.00
26907;DHT22;14472;56.880;16.658;2023-05-24T10:23:56;19.90;1.00
26907;DHT22;14472;56.880;16.658;2023-05-24T10:26:24;19.90;1.00
26907;DHT22;14472;56.880;16.658;2023-05-24T10:28:55;20.00;1.00
26907;DHT22;14472;56.880;16.658;2023-05-24T10:31:31;20.00;1.00
26907;DHT22;14472;56.880;16.658;2023-05-24T10:34:00;19.90;1.00
26907;DHT22;14472;56.880;16.658;2023-05-24T10:36:27;19.90;1.00
26907;DHT22;14472;56.880;16.658;2023-05-24T10:38:58;19.80;1.00
26907;DHT22;14472;56.880;16.658;2023-05-24T10:41:27;19.70;1.00
26907;DHT22;14472;56.880;16.658;2023-05-24T10:43:54;19.60;1.00
26907;DHT22;14472;56.880;16.658;2023-05-24T10:46:21;19.50;1.00
26907;DHT22;14472;56.880;16.658;2023-05-24T10:49:00;19.60;1.00
26907;DHT22;14472;56.880;16.658;2023-05-24T10:51:39;19.40;1.00
26907;DHT22;14472;56.880;16.658;2023-05-24T10:54:12;19.20;1.00
26907;DHT22;14472;56.880;16.658;2023-05-24T10:56:44;19.10;1.00
26907;DHT22;14472;56.880;16.658;2023-05-24T10:59:34;19.10;1.00
26907;DHT22;14472;56.880;16.658;2023-05-24T11:02:04;19.00;1.00
26907;DHT22;14472;56.880;16.658;2023-05-24T11:04:41;19.10;1.00
26907;DHT22;14472;56.880;16.658;2023-05-24T11:07:11;19.20;1.00
26907;DHT22;14472;56.880;16.658;2023-05-24T11:09:39;19.20;1.00
26907;DHT22;14472;56.880;16.658;2023-05-24T11:12:15;19.20;1.00
26907;DHT22;14472;56.880;16.658;2023-05-24T11:18:14;19.20;1.00
26907;DHT22;14472;56.880;16.658;2023-05-24T11:20:41;19.40;1.00
26907;DHT22;14472;56.880;16.658;2023-05-24T11:23:08;19.60;1.00
26907;DHT22;14472;56.880;16.658;2023-05-24T11:25:40;19.60;1.00
26907;DHT22;14472;56.880;16.658;2023-05-24T11:28:10;19.60;1.00
26907;DHT22;14472;56.880;16.658;2023-05-24T11:30:44;19.60;1.00
26907;DHT22;14472;56.880;16.658;2023-05-24T11:33:17;19.70;1.00
26907;DHT22;14472;56.880;16.658;2023-05-24T11:35:51;19.90;1.00
26907;DHT22;14472;56.880;16.658;2023-05-24T11:38:17;20.10;1.00
26907;DHT22;14472;56.880;16.658;2023-05-24T11:40:46;20.20;1.00
26907;DHT22;14472;56.880;16.658;2023-05-24T11:43:19;20.30;1.00
26907;DHT22;14472;56.880;16.658;2023-05-24T11:45:48;20.50;1.00
26907;DHT22;14472;56.880;16.658;2023-05-24T11:48:14;20.50;1.00
26907;DHT22;14472;56.880;16.658;2023-05-24T11:50:42;20.50;1.00
26907;DHT22;14472;56.880;16.658;2023-05-24T11:53:12;20.50;1.00
26907;DHT22;14472;56.880;16.658;2023-05-24T11:55:39;20.60;1.00
26907;DHT22;14472;56.880;16.658;2023-05-24T12:00:43;20.70;1.00
26907;DHT22;14472;56.880;16.658;2023-05-24T12:03:09;21.00;1.00
26907;DHT22;14472;56.880;16.658;2023-05-24T12:05:36;21.10;1.00
26907;DHT22;14472;56.880;16.658;2023-05-24T12:08:03;21.10;1.00
26907;DHT22;14472;56.880;16.658;2023-05-24T12:10:36;21.20;1.00
26907;DHT22;14472;56.880;16.658;2023-05-24T12:13:03;21.30;1.00
26907;DHT22;14472;56.880;16.658;2023-05-24T12:15:29;21.40;1.00
26907;DHT22;14472;56.880;16.658;2023-05-24T12:17:59;21.50;1.00
26907;DHT22;14472;56.880;16.658;2023-05-24T12:20:28;21.70;1.00
26907;DHT22;14472;56.880;16.658;2023-05-24T12:22:54;21.90;1.00
26907;DHT22;14472;56.880;16.658;2023-05-24T12:25:22;22.10;1.00
26907;DHT22;14472;56.880;16.658;2023-05-24T12:27:54;22.30;1.00
26907;DHT22;14472;56.880;16.658;2023-05-24T12:30:22;22.40;1.00
26907;DHT22;14472;56.880;16.658;2023-05-24T12:32:48;22.60;1.00
26907;DHT22;14472;56.880;16.658;2023-05-24T12:35:16;22.70;1.00
26907;DHT22;14472;56.880;16.658;2023-05-24T12:37:43;22.90;1.00
26907;DHT22;14472;56.880;16.658;2023-05-24T12:40:20;23.00;1.00
26907;DHT22;14472;56.880;16.658;2023-05-24T12:46:07;23.30;1.00
26907;DHT22;14472;56.880;16.658;2023-05-24T12:48:33;23.40;1.00
26907;DHT22;14472;56.880;16.658;2023-05-24T12:50:59;23.40;1.00
26907;DHT22;14472;56.880;16.658;2023-05-24T12:53:26;23.50;1.00
26907;DHT22;14472;56.880;16.658;2023-05-24T12:55:52;23.50;1.00
26907;DHT22;14472;56.880;16.658;2023-05-24T12:58:20;23.60;1.00
26907;DHT22;14472;56.880;16.658;2023-05-24T13:00:46;23.70;1.00
26907;DHT22;14472;56.880;16.658;2023-05-24T13:03:14;23.70;1.00
26907;DHT22;14472;56.880;16.658;2023-05-24T13:05:40;23.80;1.00
26907;DHT22;14472;56.880;16.658;2023-05-24T13:08:07;23.80;1.00
26907;DHT22;14472;56.880;16.658;2023-05-24T13:10:33;23.80;1.00
26907;DHT22;14472;56.880;16.658;2023-05-24T13:12:58;23.90;1.00
26907;DHT22;14472;56.880;16.658;2023-05-24T13:15:24;23.90;1.00
26907;DHT22;14472;56.880;16.658;2023-05-24T13:17:52;23.90;1.00
26907;DHT22;14472;56.880;16.658;2023-05-24T13:20:18;23.90;1.00
26907;DHT22;14472;56.880;16.658;2023-05-24T13:22:46;23.90;1.00
26907;DHT22;14472;56.880;16.658;2023-05-24T13:25:12;23.90;1.00
26907;DHT22;14472;56.880;16.658;2023-05-24T13:27:38;24.00;1.00
26907;DHT22;14472;56.880;16.658;2023-05-24T13:30:04;24.00;1.00
26907;DHT22;14472;56.880;16.658;2023-05-24T13:32:31;24.00;1.00
26907;DHT22;14472;56.880;16.658;2023-05-24T13:35:00;24.10;1.00
26907;DHT22;14472;56.880;16.658;2023-05-24T13:37:26;24.10;1.00
26907;DHT22;14472;56.880;16.658;2023-05-24T13:39:52;24.10;1.00
26907;DHT22;14472;56.880;16.658;2023-05-24T13:42:18;24.10;1.00
26907;DHT22;14472;56.880;16.658;2023-05-24T13:44:44;24.10;1.00
26907;DHT22;14472;56.880;16.658;2023-05-24T13:47:10;24.00;1.00
26907;DHT22;14472;56.880;16.658;2023-05-24T13:49:35;24.00;1.00
26907;DHT22;14472;56.880;16.658;2023-05-24T13:52:02;23.90;1.00
26907;DHT22;14472;56.880;16.658;2023-05-24T13:54:28;24.00;1.00
26907;DHT22;14472;56.880;16.658;2023-05-24T13:56:53;24.00;1.00
26907;DHT22;14472;56.880;16.658;2023-05-24T13:59:21;23.90;1.00
26907;DHT22;14472;56.880;16.658;2023-05-24T14:01:47;23.90;1.00
26907;DHT22;14472;56.880;16.658;2023-05-24T14:04:14;23.90;1.00
26907;DHT22;14472;56.880;16.658;2023-05-24T14:06:41;23.90;1.00
26907;DHT22;14472;56.880;16.658;2023-05-24T14:09:07;23.90;1.00
26907;DHT22;14472;56.880;16.658;2023-05-24T14:11:34;23.80;1.00
26907;DHT22;14472;56.880;16.658;2023-05-24T14:14:01;23.80;1.00
26907;DHT22;14472;56.880;16.658;2023-05-24T14:16:28;23.80;1.00
26907;DHT22;14472;56.880;16.658;2023-05-24T14:18:55;23.80;1.00
26907;DHT22;14472;56.880;16.658;2023-05-24T14:21:21;23.80;1.00
26907;DHT22;14472;56.880;16.658;2023-05-24T14:23:50;23.80;1.00
26907;DHT22;14472;56.880;16.658;2023-05-24T14:26:17;23.80;1.00
26907;DHT22;14472;56.880;16.658;2023-05-24T14:28:43;23.80;1.00
26907;DHT22;14472;56.880;16.658;2023-05-24T14:31:08;23.80;1.00
26907;DHT22;14472;56.880;16.658;2023-05-24T14:33:34;23.80;1.00
26907;DHT22;14472;56.880;16.658;2023-05-24T14:36:00;23.80;1.00
26907;DHT22;14472;56.880;16.658;2023-05-24T14:38:26;23.70;1.00
26907;DHT22;14472;56.880;16.658;2023-05-24T14:40:52;23.70;1.00
26907;DHT22;14472;56.880;16.658;2023-05-24T14:43:18;23.70;1.00
26907;DHT22;14472;56.880;16.658;2023-05-24T14:45:44;23.70;1.00
26907;DHT22;14472;56.880;16.658;2023-05-24T14:48:10;23.70;1.00
26907;DHT22;14472;56.880;16.658;2023-05-24T14:50:36;23.70;1.00
26907;DHT22;14472;56.880;16.658;2023-05-24T14:53:03;23.70;1.00
26907;DHT22;14472;56.880;16.658;2023-05-24T14:55:34;23.70;1.00
26907;DHT22;14472;56.880;16.658;2023-05-24T14:58:00;23.60;1.00
26907;DHT22;14472;56.880;16.658;2023-05-24T15:00:26;23.60;1.00
26907;DHT22;14472;56.880;16.658;2023-05-24T15:02:52;23.60;1.00
26907;DHT22;14472;56.880;16.658;2023-05-24T15:05:18;23.50;1.00
26907;DHT22;14472;56.880;16.658;2023-05-24T15:07:44;23.50;1.00
26907;DHT22;14472;56.880;16.658;2023-05-24T15:10:10;23.50;1.00
26907;DHT22;14472;56.880;16.658;2023-05-24T15:12:36;23.50;1.00
26907;DHT22;14472;56.880;16.658;2023-05-24T15:15:02;23.40;1.00
26907;DHT22;14472;56.880;16.658;2023-05-24T15:17:29;23.40;1.00
26907;DHT22;14472;56.880;16.658;2023-05-24T15:19:55;23.30;1.00
26907;DHT22;14472;56.880;16.658;2023-05-24T15:22:22;23.30;1.00
26907;DHT22;14472;56.880;16.658;2023-05-24T15:24:48;23.30;1.00
26907;DHT22;14472;56.880;16.658;2023-05-24T15:27:14;23.30;1.00
26907;DHT22;14472;56.880;16.658;2023-05-24T15:29:40;23.30;1.00
26907;DHT22;14472;56.880;16.658;2023-05-24T15:32:06;23.30;1.00
26907;DHT22;14472;56.880;16.658;2023-05-24T15:34:32;23.30;1.00
26907;DHT22;14472;56.880;16.658;2023-05-24T15:36:57;23.30;1.00
26907;DHT22;14472;56.880;16.658;2023-05-24T15:39:23;23.20;1.00
26907;DHT22;14472;56.880;16.658;2023-05-24T15:41:49;23.10;1.00
26907;DHT22;14472;56.880;16.658;2023-05-24T15:44:14;23.20;1.00
26907;DHT22;14472;56.880;16.658;2023-05-24T15:46:40;23.10;1.00